Nice, France

10:38 CET le 01 novembre 2014 (GMT +0100)
Nice-Cote d'Azur | Change Station
CLOSE
Current Station
Aéroport
Location: Nice,
Altitude: 10 ft
Stations météo à proximité

Alt. 10 ft 43.65 °N, 7.21 °E | Updated 8 minutes ago

Clear
Ciel dégagé
64 ° F
Paraît 64 ° F
N
10
Vent Variable Vent de NNO

Aujourd'hui
Haut(e) -- | Bas -- ° F
--% Risque de précip.
Hier
Haut(e) -- | Bas -- ° F
Precip. -- pouce
7:06 AM 5:22 PM
Lune gibbeuse croissante, 64% visible
Pression 30.27 pouce
Visibilité -9999.0 Miles terrestres
Nuages
Point de rosée 45 ° F
Humidité 49%
Précipitations 0.00 pouce
Profondeur de la couche neigeuse Non disponible.
UV Non disponible.
Pollen Non disponible.
Qualité de l'air Non disponible.
Flu Activity Non disponible.
METAR LFMN 010930Z 33009KT 280V360 CAVOK 18/07 Q1025 NOSIG

More Conditions Fewer Conditions

Pression 30.27 pouce
Visibilité -9999.0 Miles terrestres
Nuages
Point de rosée 45 ° F
Humidité 49%
Précipitations 0.00 pouce
Profondeur de la couche neigeuse Non disponible.
UV Non disponible.
Pollen Non disponible.
Qualité de l'air Non disponible.
Flu Activity Non disponible.
METAR LFMN 010930Z 33009KT 280V360 CAVOK 18/07 Q1025 NOSIG

More Conditions Fewer Conditions

10-Day Weather Forecast

Almanac

Astronomie

Nov. 01, 2014 Lever Coucher
Temps réel
Crépuscule civil
Crépuscule nautique
Crépuscule astronomique
Lune
Durée de lumière visible
Longueur du jour
Tomorrow will be .
, % of the Moon is Illuminated

Extrêmes aujourd'hui

Country Highs Country Lows

Community

WunderPhotos

Upload Photos

1,766,872 Photos téléchargées !

WunderBlogs® & News

Nearby

Qualité de l'air

  Qualité de l'air Indice de la qualité de l'air Polluant
Not available.

Épaisseur de neige

Station Depth Altitude

Activité sismique

Ville Distance Mag. Time & Date
Minimum magnitude displayed is 2.5.

Températures des eaux côtières

Lieu Température

Stations météo à proximité